KAQW/AQW METAR and TAF weather

Enter ICAO airport designator
Station Type Date Time Source
KAQW METAR 2019/10/20 18:52 UTC NOAA

KAQW 201852Z AUTO 00000KT 10SM -RA OVC100 14/04 A3004 RMK AO2 RAB19 SLP176 P0000 T01390039


Station Type Date Time Source
KAQW Decoded METAR 2019/10/20 18:52 UTC NOAA

N ADAMS HARRIMAN-AND-WEST, MA, United States (KAQW) 42-42N 073-10W 201M
Oct 20, 2019 - 02:52 PM EDT / 2019.10.20 1852 UTC
Wind: Calm:0
Visibility: 10 mile(s):0
Sky conditions: overcast
Weather: light rain
Precipitation last hour: A trace
Temperature: 57.0 F (13.9 C)
Dew Point: 39.0 F (3.9 C)
Relative Humidity: 50%
Pressure (altimeter): 30.04 in. Hg (1017 hPa)
ob: KAQW 201852Z AUTO 00000KT 10SM -RA OVC100 14/04 A3004 RMK AO2 RAB19 SLP176 P0000 T01390039
cycle: 19

Station Type Date Time Source
KAQW TAF UTC NOAA

Error!

Example: see airport list